createdAt,value
2019-01-19T00:02:46.421Z,74.90
2019-01-19T00:06:16.945Z,75.07
2019-01-19T00:09:11.756Z,75.49
2019-01-19T00:12:28.564Z,75.50
2019-01-19T00:15:29.133Z,75.78
2019-01-19T00:18:51.885Z,74.76
2019-01-19T00:22:03.254Z,74.66
2019-01-19T00:24:56.890Z,74.66
2019-01-19T00:27:59.232Z,74.81
2019-01-19T00:31:10.991Z,74.83
2019-01-19T00:34:39.054Z,74.85
2019-01-19T00:37:27.084Z,75.11
2019-01-19T00:40:36.864Z,74.22
2019-01-19T00:43:53.572Z,73.89
2019-01-19T00:47:15.218Z,73.83
2019-01-19T00:50:12.658Z,73.71
2019-01-19T00:52:50.583Z,73.36
2019-01-19T00:55:54.181Z,73.57
2019-01-19T00:58:57.581Z,73.83
2019-01-19T01:01:44.570Z,73.98
2019-01-19T01:04:49.543Z,73.95
2019-01-19T01:08:07.449Z,74.38
2019-01-19T01:11:31.117Z,75.24
2019-01-19T01:15:21.428Z,75.36
2019-01-19T01:18:10.284Z,75.52
2019-01-19T01:20:57.694Z,75.33
2019-01-19T01:23:50.802Z,75.28
2019-01-19T01:27:03.505Z,74.83
2019-01-19T01:30:14.881Z,74.74
2019-01-19T01:33:14.308Z,74.82
2019-01-19T01:36:37.879Z,74.84
2019-01-19T01:39:40.972Z,74.70
2019-01-19T01:42:58.788Z,74.45
2019-01-19T01:45:58.977Z,74.31
2019-01-19T01:49:06.111Z,74.36
2019-01-19T01:52:47.409Z,73.66
2019-01-19T01:55:40.484Z,73.54
2019-01-19T01:58:56.638Z,73.69
2019-01-19T02:02:12.628Z,73.53
2019-01-19T02:05:13.590Z,73.16
2019-01-19T02:08:37.942Z,72.74
2019-01-19T02:11:37.132Z,72.82
2019-01-19T02:14:28.493Z,73.15
2019-01-19T02:17:57.019Z,72.96
2019-01-19T02:21:30.245Z,73.07
2019-01-19T02:24:36.331Z,73.81
2019-01-19T02:27:46.220Z,74.45
2019-01-19T02:31:08.236Z,75.36
2019-01-19T02:34:21.247Z,76.39
2019-01-19T02:37:46.446Z,77.12
2019-01-19T02:40:37.369Z,77.70
2019-01-19T02:43:54.597Z,77.99
2019-01-19T02:47:33.717Z,77.98
2019-01-19T02:50:38.117Z,78.02
2019-01-19T02:54:17.637Z,78.37
2019-01-19T02:58:09.024Z,78.45
2019-01-19T03:01:35.240Z,78.24
2019-01-19T03:05:26.778Z,78.40
2019-01-19T03:08:42.222Z,78.30
2019-01-19T03:12:01.130Z,78.37
2019-01-19T03:15:46.937Z,78.96
2019-01-19T03:18:43.813Z,79.44
2019-01-19T03:21:58.443Z,80.04
2019-01-19T03:25:14.382Z,80.37
2019-01-19T03:28:13.697Z,81.01
2019-01-19T03:31:44.258Z,80.91
2019-01-19T03:34:38.870Z,80.98
2019-01-19T03:37:27.532Z,80.99
2019-01-19T03:40:52.428Z,81.14
2019-01-19T03:44:12.872Z,81.46
2019-01-19T03:47:35.258Z,82.00
2019-01-19T03:51:02.358Z,82.50
2019-01-19T03:53:55.512Z,82.85
2019-01-19T03:57:05.914Z,82.92
2019-01-19T04:00:00.572Z,83.12
2019-01-19T04:02:58.094Z,83.24
2019-01-19T04:06:12.674Z,83.28
2019-01-19T04:09:16.161Z,83.61
2019-01-19T04:12:54.078Z,83.60
2019-01-19T04:16:16.208Z,83.85
2019-01-19T04:19:02.080Z,84.12
2019-01-19T04:21:43.541Z,84.24
2019-01-19T04:24:59.292Z,84.14
2019-01-19T04:27:29.123Z,83.96
2019-01-19T04:29:58.983Z,83.93
2019-01-19T04:32:28.916Z,84.06
2019-01-19T04:34:58.797Z,84.12
2019-01-19T04:37:28.680Z,84.18
2019-01-19T04:39:58.560Z,84.27
2019-01-19T04:42:28.683Z,84.31
2019-01-19T04:44:58.551Z,84.55
2019-01-19T04:47:28.596Z,84.72
2019-01-19T04:49:58.728Z,85.00
2019-01-19T04:52:28.598Z,85.17
2019-01-19T04:54:58.507Z,85.30
2019-01-19T04:57:28.345Z,85.41
2019-01-19T04:59:58.222Z,85.46
2019-01-19T05:02:28.091Z,85.50
2019-01-19T05:04:58.223Z,85.48
2019-01-19T05:07:28.072Z,85.48
2019-01-19T05:09:58.167Z,85.35
2019-01-19T05:12:28.290Z,85.42
2019-01-19T05:14:58.117Z,85.35
2019-01-19T05:17:27.974Z,85.42
2019-01-19T05:19:58.060Z,85.39
2019-01-19T05:22:28.131Z,85.49
2019-01-19T05:24:57.987Z,85.52
2019-01-19T05:27:27.809Z,85.65
2019-01-19T05:29:57.666Z,85.70
2019-01-19T05:32:28.136Z,85.62
2019-01-19T05:34:58.555Z,85.70
2019-01-19T05:37:28.910Z,85.69
2019-01-19T05:39:58.731Z,85.73
2019-01-19T05:42:28.843Z,85.69
2019-01-19T05:44:58.669Z,85.56
2019-01-19T05:47:28.780Z,85.55
2019-01-19T05:49:58.651Z,85.61
2019-01-19T05:52:28.524Z,85.48
2019-01-19T05:54:59.121Z,85.52
2019-01-19T05:57:29.040Z,85.40
2019-01-19T05:59:58.999Z,85.44
2019-01-19T06:02:29.304Z,85.38
2019-01-19T06:04:59.180Z,85.33
2019-01-19T06:07:29.318Z,85.33
2019-01-19T06:09:59.150Z,85.25
2019-01-19T06:12:29.027Z,85.19
2019-01-19T06:14:58.981Z,85.39
2019-01-19T06:17:28.838Z,85.15
2019-01-19T06:19:58.756Z,85.28
2019-01-19T06:22:28.561Z,85.21
2019-01-19T06:24:58.656Z,85.29
2019-01-19T06:27:28.481Z,85.21
2019-01-19T06:29:58.360Z,85.30
2019-01-19T06:32:28.225Z,85.30
2019-01-19T06:34:58.342Z,85.19
2019-01-19T06:37:28.281Z,85.36
2019-01-19T06:39:58.472Z,85.57
2019-01-19T06:42:28.341Z,85.54
2019-01-19T06:44:58.198Z,85.56
2019-01-19T06:47:28.324Z,85.60
2019-01-19T06:49:58.157Z,85.65
2019-01-19T06:52:27.990Z,85.81
2019-01-19T06:54:58.082Z,85.96
2019-01-19T06:57:27.937Z,86.06
2019-01-19T06:59:57.809Z,85.87
2019-01-19T07:02:27.857Z,85.81
2019-01-19T07:04:57.973Z,85.67
2019-01-19T07:07:28.071Z,85.54
2019-01-19T07:09:57.957Z,85.46
2019-01-19T07:12:28.027Z,85.17
2019-01-19T07:14:57.918Z,85.18
2019-01-19T07:17:28.215Z,85.29
2019-01-19T07:19:58.082Z,85.38
2019-01-19T07:22:27.928Z,85.39
2019-01-19T07:24:57.809Z,85.08
2019-01-19T07:27:27.623Z,85.04
2019-01-19T07:29:57.482Z,85.01
2019-01-19T07:32:27.319Z,84.96
2019-01-19T07:34:57.180Z,84.87
2019-01-19T07:37:27.065Z,84.61
2019-01-19T07:39:57.186Z,83.92
2019-01-19T07:42:27.092Z,83.48
2019-01-19T07:44:56.979Z,83.70
2019-01-19T07:47:27.624Z,83.76
2019-01-19T07:49:57.685Z,83.91
2019-01-19T07:52:27.633Z,83.98
2019-01-19T07:54:58.585Z,83.85
2019-01-19T07:57:31.496Z,83.37
2019-01-19T08:00:00.250Z,83.31
2019-01-19T08:02:30.047Z,83.28
2019-01-19T08:05:00.167Z,83.10
2019-01-19T08:07:30.268Z,83.11
2019-01-19T08:10:00.244Z,82.95
2019-01-19T08:12:30.019Z,82.91
2019-01-19T08:15:00.267Z,82.84
2019-01-19T08:17:30.211Z,82.66
2019-01-19T08:20:00.053Z,82.49
2019-01-19T08:22:29.928Z,82.47
2019-01-19T08:24:59.763Z,82.32
2019-01-19T08:27:29.624Z,82.23
2019-01-19T08:29:59.674Z,82.19
2019-01-19T08:32:29.769Z,81.59
2019-01-19T08:34:59.901Z,81.39
2019-01-19T08:37:29.808Z,81.31
2019-01-19T08:39:59.731Z,80.85
2019-01-19T08:42:30.011Z,80.59
2019-01-19T08:45:00.225Z,80.01
2019-01-19T08:47:30.096Z,79.56
2019-01-19T08:49:59.948Z,79.40
2019-01-19T08:52:29.796Z,79.03
2019-01-19T08:54:59.651Z,78.47
2019-01-19T08:57:29.767Z,78.30
2019-01-19T08:59:59.619Z,77.91
2019-01-19T09:02:29.529Z,77.96
2019-01-19T09:04:59.375Z,78.19
2019-01-19T09:07:33.681Z,78.11
2019-01-19T09:10:00.835Z,78.00
2019-01-19T09:12:30.951Z,76.96
2019-01-19T09:15:00.819Z,76.68
2019-01-19T09:17:30.672Z,76.14
2019-01-19T09:20:00.518Z,75.60
2019-01-19T09:22:32.004Z,75.49
2019-01-19T09:25:01.886Z,74.36
2019-01-19T09:27:31.743Z,72.96
2019-01-19T09:30:02.074Z,72.21
2019-01-19T09:32:32.089Z,72.04
2019-01-19T09:35:01.991Z,70.98
2019-01-19T09:37:31.840Z,70.21
2019-01-19T09:40:01.690Z,69.83
2019-01-19T09:42:31.783Z,68.59
2019-01-19T09:45:01.939Z,67.86
2019-01-19T09:47:31.783Z,66.96
2019-01-19T09:50:01.651Z,66.41
2019-01-19T09:52:31.805Z,65.81
2019-01-19T09:55:01.973Z,65.91
2019-01-19T09:57:31.928Z,64.97
2019-01-19T10:00:02.010Z,69.28
2019-01-19T10:02:32.099Z,69.37
2019-01-19T10:05:02.173Z,67.25
2019-01-19T10:07:32.098Z,73.77
2019-01-19T10:10:02.225Z,64.43
2019-01-19T10:12:32.082Z,64.13
2019-01-19T10:15:01.944Z,64.43
2019-01-19T10:17:31.852Z,63.94
2019-01-19T10:20:01.784Z,63.93
2019-01-19T10:22:31.600Z,63.96
2019-01-19T10:25:01.458Z,64.73
2019-01-19T10:27:37.415Z,66.29
2019-01-19T10:30:02.814Z,65.75
2019-01-19T10:32:32.871Z,66.65
2019-01-19T10:35:02.814Z,65.92
2019-01-19T10:37:32.627Z,65.67
2019-01-19T10:40:03.017Z,65.61
2019-01-19T10:42:33.104Z,65.24
2019-01-19T10:45:03.027Z,64.79
2019-01-19T10:47:33.146Z,65.53
2019-01-19T10:50:03.310Z,66.00
2019-01-19T10:52:33.283Z,65.70
2019-01-19T10:55:04.097Z,64.23
2019-01-19T10:57:33.920Z,64.74
2019-01-19T11:00:04.200Z,65.05
2019-01-19T11:02:34.104Z,65.22
2019-01-19T11:05:04.473Z,66.32
2019-01-19T11:07:34.306Z,66.17
2019-01-19T11:10:04.583Z,65.78
2019-01-19T11:12:34.908Z,66.08
2019-01-19T11:15:05.308Z,66.52
2019-01-19T11:17:35.173Z,66.48
2019-01-19T11:20:06.075Z,66.54
2019-01-19T11:22:35.901Z,66.58
2019-01-19T11:25:06.258Z,66.67
2019-01-19T11:27:36.348Z,67.43
2019-01-19T11:30:12.864Z,74.93
2019-01-19T11:32:44.538Z,69.15
2019-01-19T11:35:15.185Z,67.88
2019-01-19T11:37:45.054Z,68.97
2019-01-19T11:40:18.716Z,67.60
2019-01-19T11:42:48.869Z,69.39
2019-01-19T11:45:21.148Z,67.33
2019-01-19T11:47:51.030Z,65.74
2019-01-19T11:50:22.637Z,65.69
2019-01-19T11:52:52.724Z,65.35
2019-01-19T11:55:22.603Z,65.77
2019-01-19T11:57:55.818Z,67.86
2019-01-19T12:00:28.652Z,65.75
2019-01-19T12:02:58.810Z,64.86
2019-01-19T12:05:28.641Z,63.75
2019-01-19T12:07:58.787Z,63.35
2019-01-19T12:10:30.220Z,62.21
2019-01-19T12:13:00.239Z,60.25
2019-01-19T12:15:30.210Z,59.39
2019-01-19T12:18:00.332Z,59.06
2019-01-19T12:20:39.272Z,58.83
2019-01-19T12:23:09.726Z,58.35
2019-01-19T12:25:39.937Z,58.92
2019-01-19T12:28:10.118Z,59.36
2019-01-19T12:30:40.149Z,59.02
2019-01-19T12:33:10.229Z,59.57
2019-01-19T12:35:40.122Z,59.88
2019-01-19T12:38:10.380Z,59.55
2019-01-19T12:40:40.490Z,60.22
2019-01-19T12:43:20.468Z,60.08
2019-01-19T12:46:08.744Z,59.60
2019-01-19T12:48:38.653Z,59.87
2019-01-19T12:51:11.995Z,58.82
2019-01-19T12:53:41.792Z,58.40
2019-01-19T12:56:11.923Z,57.65
2019-01-19T12:58:42.026Z,57.00
2019-01-19T13:01:11.942Z,57.25
2019-01-19T13:03:41.882Z,58.19
2019-01-19T13:06:47.775Z,57.98
2019-01-19T13:09:46.142Z,57.82
2019-01-19T13:12:45.271Z,58.13
2019-01-19T13:15:48.948Z,57.15
2019-01-19T13:19:08.616Z,57.96
2019-01-19T13:22:50.819Z,59.39
2019-01-19T13:26:05.002Z,58.60
2019-01-19T13:29:27.406Z,59.13
2019-01-19T13:32:26.777Z,59.71
2019-01-19T13:35:49.811Z,59.07
2019-01-19T13:38:45.344Z,59.46
2019-01-19T13:42:07.899Z,59.95
2019-01-19T13:45:36.422Z,59.77
2019-01-19T13:48:36.516Z,60.10
2019-01-19T13:51:34.418Z,60.17
2019-01-19T13:54:24.944Z,60.09
2019-01-19T13:57:41.461Z,60.63
2019-01-19T14:00:33.218Z,60.74
2019-01-19T14:04:12.207Z,61.86
2019-01-19T14:07:41.890Z,61.77
2019-01-19T14:10:34.187Z,63.13
2019-01-19T14:14:03.879Z,63.38
2019-01-19T14:17:20.026Z,63.31
2019-01-19T14:20:43.963Z,64.22
2019-01-19T14:23:38.625Z,64.33
2019-01-19T14:27:09.795Z,64.69
2019-01-19T14:30:45.802Z,64.60
2019-01-19T14:33:44.672Z,65.50
2019-01-19T14:37:00.445Z,65.70
2019-01-19T14:40:26.287Z,66.25
2019-01-19T14:43:29.938Z,66.03
2019-01-19T14:46:38.469Z,65.99
2019-01-19T14:50:01.843Z,66.22
2019-01-19T14:53:02.354Z,67.18
2019-01-19T14:56:21.237Z,67.26
2019-01-19T14:59:22.288Z,67.26
2019-01-19T15:02:29.656Z,67.17
2019-01-19T15:05:48.912Z,67.69
2019-01-19T15:09:03.817Z,67.88
2019-01-19T15:12:12.455Z,67.54
2019-01-19T15:15:13.036Z,72.42
2019-01-19T15:18:11.240Z,69.22
2019-01-19T15:21:09.542Z,68.94
2019-01-19T15:23:50.033Z,69.03
2019-01-19T15:27:00.479Z,69.34
2019-01-19T15:30:15.359Z,69.58
2019-01-19T15:33:41.764Z,70.09
2019-01-19T15:37:40.859Z,70.53
2019-01-19T15:40:49.944Z,70.61
2019-01-19T15:44:30.883Z,70.84
2019-01-19T15:47:37.741Z,70.89
2019-01-19T15:51:00.104Z,71.31
2019-01-19T15:54:06.591Z,71.43
2019-01-19T15:57:16.402Z,71.92
2019-01-19T16:00:38.075Z,72.22
2019-01-19T16:03:43.178Z,72.61
2019-01-19T16:06:50.719Z,72.86
2019-01-19T16:10:01.077Z,72.92
2019-01-19T16:13:13.672Z,73.33
2019-01-19T16:16:25.389Z,74.16
2019-01-19T16:19:53.831Z,74.81
2019-01-19T16:22:55.352Z,75.54
2019-01-19T16:26:20.881Z,76.40
2019-01-19T16:29:40.010Z,77.22
2019-01-19T16:32:52.546Z,77.65
2019-01-19T16:36:12.445Z,77.88
2019-01-19T16:39:25.606Z,77.91
2019-01-19T16:42:26.782Z,78.09
2019-01-19T16:45:27.428Z,78.41
2019-01-19T16:48:33.106Z,78.48
2019-01-19T16:51:36.675Z,78.53
2019-01-19T16:54:31.419Z,78.68
2019-01-19T16:57:54.513Z,78.77
2019-01-19T17:01:24.289Z,78.83
2019-01-19T17:05:00.438Z,78.74
2019-01-19T17:08:08.482Z,78.57
2019-01-19T17:11:20.289Z,78.59
2019-01-19T17:14:31.564Z,78.68
2019-01-19T17:17:21.633Z,78.71
2019-01-19T17:20:36.858Z,79.15
2019-01-19T17:24:17.504Z,79.27
2019-01-19T17:27:20.249Z,79.50
2019-01-19T17:30:29.865Z,79.61
2019-01-19T17:33:43.658Z,79.97
2019-01-19T17:37:14.050Z,80.21
2019-01-19T17:40:54.952Z,80.54
2019-01-19T17:43:59.286Z,80.88
2019-01-19T17:47:22.156Z,81.32
2019-01-19T17:50:43.475Z,81.65
2019-01-19T17:53:44.123Z,81.79
2019-01-19T17:57:12.346Z,81.96
2019-01-19T18:00:41.103Z,82.21
2019-01-19T18:03:55.757Z,82.51
2019-01-19T18:06:54.313Z,82.92
2019-01-19T18:09:55.323Z,83.01
2019-01-19T18:13:09.131Z,83.01
2019-01-19T18:17:15.340Z,82.96
2019-01-19T18:20:13.958Z,82.87
2019-01-19T18:23:28.931Z,82.72
2019-01-19T18:26:51.322Z,82.78
2019-01-19T18:29:49.061Z,82.84
2019-01-19T18:32:56.661Z,82.91
2019-01-19T18:36:10.158Z,82.99
2019-01-19T18:39:18.494Z,83.13
2019-01-19T18:42:37.655Z,83.91
2019-01-19T18:45:59.744Z,83.80
2019-01-19T18:49:45.221Z,83.75
2019-01-19T18:53:00.738Z,83.81
2019-01-19T18:55:59.862Z,83.89
2019-01-19T18:58:58.447Z,84.16
2019-01-19T19:02:09.452Z,84.52
2019-01-19T19:05:35.749Z,84.79
2019-01-19T19:08:51.846Z,84.92
2019-01-19T19:12:05.444Z,85.09
2019-01-19T19:15:41.895Z,85.25
2019-01-19T19:18:41.957Z,85.46
2019-01-19T19:21:58.975Z,85.54
2019-01-19T19:25:02.747Z,85.65
2019-01-19T19:28:56.808Z,85.76
2019-01-19T19:31:48.964Z,85.92
2019-01-19T19:35:21.675Z,86.10
2019-01-19T19:38:51.747Z,86.29
2019-01-19T19:42:04.226Z,86.42
2019-01-19T19:45:18.387Z,86.65
2019-01-19T19:49:01.009Z,86.78
2019-01-19T19:51:55.130Z,86.87
2019-01-19T19:54:26.082Z,86.98
2019-01-19T19:56:57.174Z,87.07
2019-01-19T19:59:27.006Z,87.13
2019-01-19T20:01:57.373Z,87.24
2019-01-19T20:04:27.723Z,87.28
2019-01-19T20:06:58.061Z,87.36
2019-01-19T20:09:28.485Z,87.41
2019-01-19T20:12:08.572Z,87.50
2019-01-19T20:14:38.684Z,87.53
2019-01-19T20:17:10.114Z,87.58
2019-01-19T20:19:40.069Z,87.65
2019-01-19T20:22:10.045Z,87.73
2019-01-19T20:24:40.254Z,87.71
2019-01-19T20:27:10.145Z,87.77
2019-01-19T20:29:40.661Z,87.80
2019-01-19T20:32:10.610Z,87.80
2019-01-19T20:34:43.019Z,87.79
2019-01-19T20:37:13.901Z,87.83
2019-01-19T20:39:44.660Z,87.82
2019-01-19T20:42:14.497Z,87.82
2019-01-19T20:44:44.764Z,87.91
2019-01-19T20:47:15.666Z,87.93
2019-01-19T20:49:45.828Z,87.96
2019-01-19T20:52:15.797Z,88.00
2019-01-19T20:54:45.914Z,88.04
2019-01-19T20:57:15.855Z,88.08
2019-01-19T20:59:45.809Z,88.09
2019-01-19T21:02:16.321Z,88.09
2019-01-19T21:04:46.432Z,88.15
2019-01-19T21:07:16.499Z,88.15
2019-01-19T21:09:48.788Z,88.18
2019-01-19T21:12:18.779Z,88.13
2019-01-19T21:14:48.735Z,88.17
2019-01-19T21:17:18.632Z,88.17
2019-01-19T21:19:49.974Z,88.11
2019-01-19T21:22:19.818Z,88.09
2019-01-19T21:24:49.865Z,88.02
2019-01-19T21:27:22.401Z,88.05
2019-01-19T21:29:52.338Z,87.96
2019-01-19T21:32:22.763Z,87.97
2019-01-19T21:34:53.269Z,87.90
2019-01-19T21:37:23.376Z,87.92
2019-01-19T21:39:53.477Z,87.94
2019-01-19T21:42:23.373Z,87.95
2019-01-19T21:44:53.227Z,87.92
2019-01-19T21:47:23.132Z,87.96
2019-01-19T21:49:53.052Z,87.99
2019-01-19T21:52:22.952Z,88.05
2019-01-19T21:54:52.832Z,88.11
2019-01-19T21:57:22.814Z,88.15
2019-01-19T21:59:53.294Z,88.27
2019-01-19T22:02:23.675Z,88.43
2019-01-19T22:04:53.647Z,88.60
2019-01-19T22:07:23.660Z,88.69
2019-01-19T22:09:53.684Z,88.79
2019-01-19T22:12:23.583Z,88.87
2019-01-19T22:14:53.503Z,88.96
2019-01-19T22:17:23.356Z,89.01
2019-01-19T22:19:53.295Z,89.03
2019-01-19T22:22:23.232Z,89.01
2019-01-19T22:24:53.154Z,89.04
2019-01-19T22:27:23.349Z,89.07
2019-01-19T22:29:53.285Z,89.09
2019-01-19T22:32:23.647Z,89.11
2019-01-19T22:34:53.571Z,89.21
2019-01-19T22:37:23.760Z,89.26
2019-01-19T22:39:53.675Z,89.26
2019-01-19T22:42:23.629Z,89.29
2019-01-19T22:44:53.605Z,89.26
2019-01-19T22:47:23.510Z,89.15
2019-01-19T22:49:53.827Z,89.02
2019-01-19T22:52:23.909Z,88.95
2019-01-19T22:54:53.767Z,89.05
2019-01-19T22:57:23.643Z,89.06
2019-01-19T22:59:53.510Z,89.08
2019-01-19T23:02:23.675Z,89.15
2019-01-19T23:04:53.533Z,89.16
2019-01-19T23:07:23.436Z,89.19
2019-01-19T23:09:53.340Z,89.25
2019-01-19T23:12:23.206Z,89.25
2019-01-19T23:14:53.591Z,89.26
2019-01-19T23:17:23.548Z,89.30
2019-01-19T23:19:53.477Z,89.29
2019-01-19T23:22:24.706Z,89.28
2019-01-19T23:24:55.136Z,89.30
2019-01-19T23:27:25.094Z,89.34
2019-01-19T23:29:54.963Z,89.40
2019-01-19T23:32:24.944Z,89.40
2019-01-19T23:34:55.079Z,89.45
2019-01-19T23:37:25.250Z,89.49
2019-01-19T23:39:55.352Z,89.51
2019-01-19T23:42:25.428Z,89.55
2019-01-19T23:44:55.553Z,89.57
2019-01-19T23:47:25.727Z,89.64
2019-01-19T23:49:55.620Z,89.67
2019-01-19T23:52:25.476Z,89.74
2019-01-19T23:54:55.581Z,89.79
2019-01-19T23:57:25.565Z,89.86
2019-01-19T23:59:55.782Z,89.88
